sensor_id;sensor_type;location;lat;lon;timestamp;temperature;humidity
75262;DHT22;63859;51.064;4.580;2022-10-22T00:01:12;15.20;99.90
75262;DHT22;63859;51.064;4.580;2022-10-22T00:03:37;15.30;99.90
75262;DHT22;63859;51.064;4.580;2022-10-22T00:06:03;15.20;99.90
75262;DHT22;63859;51.064;4.580;2022-10-22T00:08:29;15.20;99.90
75262;DHT22;63859;51.064;4.580;2022-10-22T00:10:55;15.20;99.90
75262;DHT22;63859;51.064;4.580;2022-10-22T00:13:21;15.10;99.90
75262;DHT22;63859;51.064;4.580;2022-10-22T00:15:47;15.20;99.90
75262;DHT22;63859;51.064;4.580;2022-10-22T00:18:13;15.10;99.90
75262;DHT22;63859;51.064;4.580;2022-10-22T00:20:39;15.10;99.90
75262;DHT22;63859;51.064;4.580;2022-10-22T00:23:04;15.10;99.90
75262;DHT22;63859;51.064;4.580;2022-10-22T00:25:30;15.10;99.90
75262;DHT22;63859;51.064;4.580;2022-10-22T00:27:58;15.10;99.90
75262;DHT22;63859;51.064;4.580;2022-10-22T00:30:23;15.10;99.90
75262;DHT22;63859;51.064;4.580;2022-10-22T00:32:49;15.10;99.90
75262;DHT22;63859;51.064;4.580;2022-10-22T00:35:15;15.00;99.90
75262;DHT22;63859;51.064;4.580;2022-10-22T00:37:40;15.00;99.90
75262;DHT22;63859;51.064;4.580;2022-10-22T00:40:06;15.00;99.90
75262;DHT22;63859;51.064;4.580;2022-10-22T00:42:32;15.00;99.90
75262;DHT22;63859;51.064;4.580;2022-10-22T00:47:35;15.00;99.90
75262;DHT22;63859;51.064;4.580;2022-10-22T00:50:05;14.90;99.90
75262;DHT22;63859;51.064;4.580;2022-10-22T00:52:32;14.90;99.90
75262;DHT22;63859;51.064;4.580;2022-10-22T00:54:59;14.90;99.90
75262;DHT22;63859;51.064;4.580;2022-10-22T00:57:25;14.90;99.90
75262;DHT22;63859;51.064;4.580;2022-10-22T00:59:51;14.90;99.90
75262;DHT22;63859;51.064;4.580;2022-10-22T01:02:18;14.90;99.90
75262;DHT22;63859;51.064;4.580;2022-10-22T01:04:44;14.90;99.90
75262;DHT22;63859;51.064;4.580;2022-10-22T01:07:18;14.90;99.90
75262;DHT22;63859;51.064;4.580;2022-10-22T01:09:57;14.90;99.90
75262;DHT22;63859;51.064;4.580;2022-10-22T01:12:42;14.90;99.90
75262;DHT22;63859;51.064;4.580;2022-10-22T01:18:26;14.90;99.90
75262;DHT22;63859;51.064;4.580;2022-10-22T01:31:42;14.90;99.90
75262;DHT22;63859;51.064;4.580;2022-10-22T01:34:13;14.90;99.90
75262;DHT22;63859;51.064;4.580;2022-10-22T01:36:40;14.90;99.90
75262;DHT22;63859;51.064;4.580;2022-10-22T01:39:07;14.90;99.90
75262;DHT22;63859;51.064;4.580;2022-10-22T01:41:34;14.90;99.90
75262;DHT22;63859;51.064;4.580;2022-10-22T01:44:00;14.90;99.90
75262;DHT22;63859;51.064;4.580;2022-10-22T01:46:26;14.80;99.90
75262;DHT22;63859;51.064;4.580;2022-10-22T01:49:16;14.90;99.90
75262;DHT22;63859;51.064;4.580;2022-10-22T01:55:19;14.80;99.90
75262;DHT22;63859;51.064;4.580;2022-10-22T01:58:08;14.80;99.90
75262;DHT22;63859;51.064;4.580;2022-10-22T02:00:44;14.80;99.90
75262;DHT22;63859;51.064;4.580;2022-10-22T02:03:20;14.80;99.90
75262;DHT22;63859;51.064;4.580;2022-10-22T02:05:58;14.80;99.90
75262;DHT22;63859;51.064;4.580;2022-10-22T02:08:32;14.80;99.90
75262;DHT22;63859;51.064;4.580;2022-10-22T02:11:00;14.70;99.90
75262;DHT22;63859;51.064;4.580;2022-10-22T02:13:35;14.80;99.90
75262;DHT22;63859;51.064;4.580;2022-10-22T02:16:05;14.70;99.90
75262;DHT22;63859;51.064;4.580;2022-10-22T02:18:34;14.70;99.90
75262;DHT22;63859;51.064;4.580;2022-10-22T02:21:02;14.70;99.90
75262;DHT22;63859;51.064;4.580;2022-10-22T02:23:28;14.70;99.90
75262;DHT22;63859;51.064;4.580;2022-10-22T02:26:31;14.70;99.90
75262;DHT22;63859;51.064;4.580;2022-10-22T02:29:14;14.60;99.90
75262;DHT22;63859;51.064;4.580;2022-10-22T02:31:43;14.60;99.90
75262;DHT22;63859;51.064;4.580;2022-10-22T02:34:13;14.60;99.90
75262;DHT22;63859;51.064;4.580;2022-10-22T02:36:42;14.60;99.90
75262;DHT22;63859;51.064;4.580;2022-10-22T02:39:08;14.60;99.90
75262;DHT22;63859;51.064;4.580;2022-10-22T02:41:35;14.50;99.90
75262;DHT22;63859;51.064;4.580;2022-10-22T02:44:01;14.50;99.90
75262;DHT22;63859;51.064;4.580;2022-10-22T02:46:27;14.50;99.90
75262;DHT22;63859;51.064;4.580;2022-10-22T02:48:53;14.50;99.90
75262;DHT22;63859;51.064;4.580;2022-10-22T02:51:18;14.50;99.90
75262;DHT22;63859;51.064;4.580;2022-10-22T02:53:44;14.50;99.90
75262;DHT22;63859;51.064;4.580;2022-10-22T02:56:10;14.50;99.90
75262;DHT22;63859;51.064;4.580;2022-10-22T02:58:35;14.50;99.90
75262;DHT22;63859;51.064;4.580;2022-10-22T03:01:01;14.40;99.90
75262;DHT22;63859;51.064;4.580;2022-10-22T03:03:27;14.40;99.90
75262;DHT22;63859;51.064;4.580;2022-10-22T03:05:52;14.40;99.90
75262;DHT22;63859;51.064;4.580;2022-10-22T03:08:18;14.40;99.90
75262;DHT22;63859;51.064;4.580;2022-10-22T03:10:43;14.40;99.90
75262;DHT22;63859;51.064;4.580;2022-10-22T03:13:09;14.40;99.90
75262;DHT22;63859;51.064;4.580;2022-10-22T03:15:35;14.30;99.90
75262;DHT22;63859;51.064;4.580;2022-10-22T03:18:00;14.30;99.90
75262;DHT22;63859;51.064;4.580;2022-10-22T03:20:26;14.30;99.90
75262;DHT22;63859;51.064;4.580;2022-10-22T03:22:52;14.30;99.90
75262;DHT22;63859;51.064;4.580;2022-10-22T03:25:20;14.30;99.90
75262;DHT22;63859;51.064;4.580;2022-10-22T03:27:49;14.30;99.90
75262;DHT22;63859;51.064;4.580;2022-10-22T03:30:16;14.30;99.90
75262;DHT22;63859;51.064;4.580;2022-10-22T03:32:41;14.20;99.90
75262;DHT22;63859;51.064;4.580;2022-10-22T03:35:07;14.20;99.90
75262;DHT22;63859;51.064;4.580;2022-10-22T03:37:33;14.20;99.90
75262;DHT22;63859;51.064;4.580;2022-10-22T03:40:00;14.20;99.90
75262;DHT22;63859;51.064;4.580;2022-10-22T03:42:26;14.20;99.90
75262;DHT22;63859;51.064;4.580;2022-10-22T03:44:52;14.20;99.90
75262;DHT22;63859;51.064;4.580;2022-10-22T03:47:17;14.30;99.90
75262;DHT22;63859;51.064;4.580;2022-10-22T03:49:43;14.30;99.90
75262;DHT22;63859;51.064;4.580;2022-10-22T03:52:10;14.30;99.90
75262;DHT22;63859;51.064;4.580;2022-10-22T03:54:36;14.30;99.90
75262;DHT22;63859;51.064;4.580;2022-10-22T03:57:04;14.30;99.90
75262;DHT22;63859;51.064;4.580;2022-10-22T03:59:43;14.30;99.90
75262;DHT22;63859;51.064;4.580;2022-10-22T04:02:10;14.30;99.90
75262;DHT22;63859;51.064;4.580;2022-10-22T04:04:37;14.30;99.90
75262;DHT22;63859;51.064;4.580;2022-10-22T04:07:04;14.30;99.90
75262;DHT22;63859;51.064;4.580;2022-10-22T04:09:33;14.40;99.90
75262;DHT22;63859;51.064;4.580;2022-10-22T04:11:59;14.40;99.90
75262;DHT22;63859;51.064;4.580;2022-10-22T04:14:25;14.40;99.90
75262;DHT22;63859;51.064;4.580;2022-10-22T04:16:50;14.40;99.90
75262;DHT22;63859;51.064;4.580;2022-10-22T04:19:16;14.30;99.90
75262;DHT22;63859;51.064;4.580;2022-10-22T04:21:43;14.40;99.90
75262;DHT22;63859;51.064;4.580;2022-10-22T04:24:09;14.40;99.90
75262;DHT22;63859;51.064;4.580;2022-10-22T04:26:34;14.40;99.90
75262;DHT22;63859;51.064;4.580;2022-10-22T04:29:00;14.40;99.90
75262;DHT22;63859;51.064;4.580;2022-10-22T04:31:26;14.40;99.90
75262;DHT22;63859;51.064;4.580;2022-10-22T04:33:53;14.40;99.90
75262;DHT22;63859;51.064;4.580;2022-10-22T04:36:19;14.40;99.90
75262;DHT22;63859;51.064;4.580;2022-10-22T04:38:46;14.40;99.90
75262;DHT22;63859;51.064;4.580;2022-10-22T04:41:15;14.40;99.90
75262;DHT22;63859;51.064;4.580;2022-10-22T04:43:42;14.40;99.90
75262;DHT22;63859;51.064;4.580;2022-10-22T04:46:08;14.40;99.90
75262;DHT22;63859;51.064;4.580;2022-10-22T04:48:38;14.40;99.90
75262;DHT22;63859;51.064;4.580;2022-10-22T04:51:05;14.30;99.90
75262;DHT22;63859;51.064;4.580;2022-10-22T04:53:31;14.30;99.90
75262;DHT22;63859;51.064;4.580;2022-10-22T04:56:27;14.30;99.90
75262;DHT22;63859;51.064;4.580;2022-10-22T04:59:02;14.30;99.90
75262;DHT22;63859;51.064;4.580;2022-10-22T05:01:33;14.30;99.90
75262;DHT22;63859;51.064;4.580;2022-10-22T05:04:00;14.30;99.90
75262;DHT22;63859;51.064;4.580;2022-10-22T05:06:28;14.20;99.90
75262;DHT22;63859;51.064;4.580;2022-10-22T05:08:56;14.20;99.90
75262;DHT22;63859;51.064;4.580;2022-10-22T05:11:28;14.20;99.90
75262;DHT22;63859;51.064;4.580;2022-10-22T05:13:58;14.20;99.90
75262;DHT22;63859;51.064;4.580;2022-10-22T05:16:24;14.20;99.90
75262;DHT22;63859;51.064;4.580;2022-10-22T05:18:50;14.20;99.90
75262;DHT22;63859;51.064;4.580;2022-10-22T05:21:18;14.20;99.90
75262;DHT22;63859;51.064;4.580;2022-10-22T05:23:45;14.20;99.90
75262;DHT22;63859;51.064;4.580;2022-10-22T05:26:13;14.20;99.90
75262;DHT22;63859;51.064;4.580;2022-10-22T05:28:40;14.20;99.90
75262;DHT22;63859;51.064;4.580;2022-10-22T05:31:07;14.20;99.90
75262;DHT22;63859;51.064;4.580;2022-10-22T05:33:34;14.20;99.90
75262;DHT22;63859;51.064;4.580;2022-10-22T05:36:01;14.20;99.90
75262;DHT22;63859;51.064;4.580;2022-10-22T05:38:27;14.30;99.90
75262;DHT22;63859;51.064;4.580;2022-10-22T05:41:06;14.30;99.90
75262;DHT22;63859;51.064;4.580;2022-10-22T05:43:33;14.40;99.90
75262;DHT22;63859;51.064;4.580;2022-10-22T05:46:04;14.40;99.90
75262;DHT22;63859;51.064;4.580;2022-10-22T05:48:30;14.40;99.90
75262;DHT22;63859;51.064;4.580;2022-10-22T05:50:56;14.50;99.90
75262;DHT22;63859;51.064;4.580;2022-10-22T05:53:21;14.50;99.80
75262;DHT22;63859;51.064;4.580;2022-10-22T05:55:47;14.60;99.70
75262;DHT22;63859;51.064;4.580;2022-10-22T05:58:13;14.60;99.70
75262;DHT22;63859;51.064;4.580;2022-10-22T06:00:39;14.70;99.70
75262;DHT22;63859;51.064;4.580;2022-10-22T06:03:05;14.70;99.60
75262;DHT22;63859;51.064;4.580;2022-10-22T06:05:34;14.80;99.50
75262;DHT22;63859;51.064;4.580;2022-10-22T06:08:01;14.80;99.40
75262;DHT22;63859;51.064;4.580;2022-10-22T06:10:27;14.90;99.40
75262;DHT22;63859;51.064;4.580;2022-10-22T06:12:52;14.90;99.40
75262;DHT22;63859;51.064;4.580;2022-10-22T06:15:19;14.80;99.30
75262;DHT22;63859;51.064;4.580;2022-10-22T06:17:45;14.90;99.30
75262;DHT22;63859;51.064;4.580;2022-10-22T06:20:11;14.90;99.30
75262;DHT22;63859;51.064;4.580;2022-10-22T06:22:38;14.90;99.30
75262;DHT22;63859;51.064;4.580;2022-10-22T06:25:05;14.90;99.20
75262;DHT22;63859;51.064;4.580;2022-10-22T06:27:31;14.90;99.20
75262;DHT22;63859;51.064;4.580;2022-10-22T06:29:56;15.00;99.20
75262;DHT22;63859;51.064;4.580;2022-10-22T06:32:22;15.00;99.20
75262;DHT22;63859;51.064;4.580;2022-10-22T06:34:48;15.00;99.10
75262;DHT22;63859;51.064;4.580;2022-10-22T06:37:15;15.00;99.10
75262;DHT22;63859;51.064;4.580;2022-10-22T06:39:40;15.00;99.10
75262;DHT22;63859;51.064;4.580;2022-10-22T06:42:06;15.00;99.10
75262;DHT22;63859;51.064;4.580;2022-10-22T06:44:32;15.00;99.10
75262;DHT22;63859;51.064;4.580;2022-10-22T06:46:57;15.00;99.10
75262;DHT22;63859;51.064;4.580;2022-10-22T06:49:23;15.00;99.10
75262;DHT22;63859;51.064;4.580;2022-10-22T06:51:50;15.10;99.00
75262;DHT22;63859;51.064;4.580;2022-10-22T06:54:16;15.10;99.10
75262;DHT22;63859;51.064;4.580;2022-10-22T06:56:41;15.10;99.10
75262;DHT22;63859;51.064;4.580;2022-10-22T06:59:07;15.10;99.30
75262;DHT22;63859;51.064;4.580;2022-10-22T07:01:34;15.10;99.00
75262;DHT22;63859;51.064;4.580;2022-10-22T07:04:00;15.10;99.00
75262;DHT22;63859;51.064;4.580;2022-10-22T07:06:26;15.10;99.00
75262;DHT22;63859;51.064;4.580;2022-10-22T07:08:56;15.10;98.90
75262;DHT22;63859;51.064;4.580;2022-10-22T07:11:28;15.10;98.90
75262;DHT22;63859;51.064;4.580;2022-10-22T07:13:56;15.20;99.00
75262;DHT22;63859;51.064;4.580;2022-10-22T07:16:23;15.20;98.90
75262;DHT22;63859;51.064;4.580;2022-10-22T07:18:49;15.20;98.90
75262;DHT22;63859;51.064;4.580;2022-10-22T07:21:17;15.20;98.90
75262;DHT22;63859;51.064;4.580;2022-10-22T07:23:43;15.20;98.90
75262;DHT22;63859;51.064;4.580;2022-10-22T07:26:11;15.20;99.00
75262;DHT22;63859;51.064;4.580;2022-10-22T07:28:37;15.10;98.90
75262;DHT22;63859;51.064;4.580;2022-10-22T07:31:04;15.20;99.00
75262;DHT22;63859;51.064;4.580;2022-10-22T07:33:30;15.10;98.90
75262;DHT22;63859;51.064;4.580;2022-10-22T07:35:58;15.20;99.00
75262;DHT22;63859;51.064;4.580;2022-10-22T07:38:24;15.20;99.30
75262;DHT22;63859;51.064;4.580;2022-10-22T07:40:50;15.20;99.00
75262;DHT22;63859;51.064;4.580;2022-10-22T07:43:15;15.10;99.00
75262;DHT22;63859;51.064;4.580;2022-10-22T07:45:41;15.20;99.00
75262;DHT22;63859;51.064;4.580;2022-10-22T07:48:07;15.30;99.00
75262;DHT22;63859;51.064;4.580;2022-10-22T07:50:32;15.30;99.00
75262;DHT22;63859;51.064;4.580;2022-10-22T07:52:58;15.30;98.80
75262;DHT22;63859;51.064;4.580;2022-10-22T07:55:24;15.40;98.80
75262;DHT22;63859;51.064;4.580;2022-10-22T07:57:50;15.40;98.80
75262;DHT22;63859;51.064;4.580;2022-10-22T08:00:15;15.50;98.70
75262;DHT22;63859;51.064;4.580;2022-10-22T08:02:41;15.50;98.70
75262;DHT22;63859;51.064;4.580;2022-10-22T08:05:07;15.50;98.60
75262;DHT22;63859;51.064;4.580;2022-10-22T08:07:33;15.60;98.60
75262;DHT22;63859;51.064;4.580;2022-10-22T08:09:59;15.60;98.50
75262;DHT22;63859;51.064;4.580;2022-10-22T08:12:24;15.70;98.40
75262;DHT22;63859;51.064;4.580;2022-10-22T08:14:50;15.70;98.40
75262;DHT22;63859;51.064;4.580;2022-10-22T08:17:15;15.70;98.10
75262;DHT22;63859;51.064;4.580;2022-10-22T08:19:41;15.70;98.30
75262;DHT22;63859;51.064;4.580;2022-10-22T08:22:07;15.80;98.50
75262;DHT22;63859;51.064;4.580;2022-10-22T08:24:32;15.80;98.30
75262;DHT22;63859;51.064;4.580;2022-10-22T08:26:58;15.90;98.20
75262;DHT22;63859;51.064;4.580;2022-10-22T08:29:24;15.90;98.10
75262;DHT22;63859;51.064;4.580;2022-10-22T08:31:52;15.90;98.40
75262;DHT22;63859;51.064;4.580;2022-10-22T08:34:18;16.00;98.00
75262;DHT22;63859;51.064;4.580;2022-10-22T08:36:44;16.00;97.80
75262;DHT22;63859;51.064;4.580;2022-10-22T08:39:10;16.00;97.80
75262;DHT22;63859;51.064;4.580;2022-10-22T08:41:49;16.00;97.70
75262;DHT22;63859;51.064;4.580;2022-10-22T08:45:02;16.00;97.70
75262;DHT22;63859;51.064;4.580;2022-10-22T08:49:43;16.10;97.80
75262;DHT22;63859;51.064;4.580;2022-10-22T08:52:15;16.10;97.60
75262;DHT22;63859;51.064;4.580;2022-10-22T08:54:57;16.20;97.70
75262;DHT22;63859;51.064;4.580;2022-10-22T08:57:41;16.20;97.50
75262;DHT22;63859;51.064;4.580;2022-10-22T09:00:16;16.20;97.60
75262;DHT22;63859;51.064;4.580;2022-10-22T09:08:25;16.30;97.30
75262;DHT22;63859;51.064;4.580;2022-10-22T09:11:12;16.30;97.40
75262;DHT22;63859;51.064;4.580;2022-10-22T09:13:40;16.40;97.40
75262;DHT22;63859;51.064;4.580;2022-10-22T09:16:16;16.40;97.30
75262;DHT22;63859;51.064;4.580;2022-10-22T09:24:09;16.50;97.40
75262;DHT22;63859;51.064;4.580;2022-10-22T09:26:38;16.50;97.40
75262;DHT22;63859;51.064;4.580;2022-10-22T09:29:05;16.60;97.10
75262;DHT22;63859;51.064;4.580;2022-10-22T09:31:32;16.60;97.30
75262;DHT22;63859;51.064;4.580;2022-10-22T09:33:58;16.60;97.10
75262;DHT22;63859;51.064;4.580;2022-10-22T09:36:30;16.70;97.20
75262;DHT22;63859;51.064;4.580;2022-10-22T09:38:55;16.80;96.80
75262;DHT22;63859;51.064;4.580;2022-10-22T09:41:27;16.80;96.70
75262;DHT22;63859;51.064;4.580;2022-10-22T09:43:56;16.80;96.70
75262;DHT22;63859;51.064;4.580;2022-10-22T09:46:26;16.80;96.60
75262;DHT22;63859;51.064;4.580;2022-10-22T09:49:15;16.80;96.70
75262;DHT22;63859;51.064;4.580;2022-10-22T09:51:59;16.90;96.80
75262;DHT22;63859;51.064;4.580;2022-10-22T09:54:36;17.00;96.40
75262;DHT22;63859;51.064;4.580;2022-10-22T09:57:05;16.90;96.40
75262;DHT22;63859;51.064;4.580;2022-10-22T09:59:38;17.00;96.40
75262;DHT22;63859;51.064;4.580;2022-10-22T10:02:10;17.00;96.60
75262;DHT22;63859;51.064;4.580;2022-10-22T10:04:56;17.00;96.60
75262;DHT22;63859;51.064;4.580;2022-10-22T10:07:29;17.00;96.40
75262;DHT22;63859;51.064;4.580;2022-10-22T10:09:56;17.00;96.50
75262;DHT22;63859;51.064;4.580;2022-10-22T10:21:46;17.20;96.00
75262;DHT22;63859;51.064;4.580;2022-10-22T10:24:49;17.10;95.60
75262;DHT22;63859;51.064;4.580;2022-10-22T10:27:28;17.10;95.60
75262;DHT22;63859;51.064;4.580;2022-10-22T10:43:48;17.50;95.00
75262;DHT22;63859;51.064;4.580;2022-10-22T10:49:09;17.60;95.10
75262;DHT22;63859;51.064;4.580;2022-10-22T10:56:59;17.90;94.80
75262;DHT22;63859;51.064;4.580;2022-10-22T11:02:14;17.90;94.50
75262;DHT22;63859;51.064;4.580;2022-10-22T11:07:24;18.00;94.20
75262;DHT22;63859;51.064;4.580;2022-10-22T11:09:59;17.90;94.30
75262;DHT22;63859;51.064;4.580;2022-10-22T11:12:30;17.90;94.40
75262;DHT22;63859;51.064;4.580;2022-10-22T11:17:45;17.90;94.80
75262;DHT22;63859;51.064;4.580;2022-10-22T11:20:49;18.10;94.80
75262;DHT22;63859;51.064;4.580;2022-10-22T11:23:26;18.20;94.70
75262;DHT22;63859;51.064;4.580;2022-10-22T11:25:52;18.40;94.30
75262;DHT22;63859;51.064;4.580;2022-10-22T11:28:38;18.40;94.20
75262;DHT22;63859;51.064;4.580;2022-10-22T11:31:12;18.40;94.00
75262;DHT22;63859;51.064;4.580;2022-10-22T11:36:10;18.20;94.20
75262;DHT22;63859;51.064;4.580;2022-10-22T11:38:36;18.10;94.60
75262;DHT22;63859;51.064;4.580;2022-10-22T11:41:15;18.10;94.50
75262;DHT22;63859;51.064;4.580;2022-10-22T11:44:07;18.00;94.80
75262;DHT22;63859;51.064;4.580;2022-10-22T11:46:45;18.10;94.60
75262;DHT22;63859;51.064;4.580;2022-10-22T11:49:22;18.30;94.40
75262;DHT22;63859;51.064;4.580;2022-10-22T11:51:49;18.60;94.20
75262;DHT22;63859;51.064;4.580;2022-10-22T12:02:22;18.70;93.80
75262;DHT22;63859;51.064;4.580;2022-10-22T12:04:48;18.60;93.50
75262;DHT22;63859;51.064;4.580;2022-10-22T12:07:33;18.60;93.40
75262;DHT22;63859;51.064;4.580;2022-10-22T12:09:59;18.70;93.70
75262;DHT22;63859;51.064;4.580;2022-10-22T12:12:35;18.80;93.00
75262;DHT22;63859;51.064;4.580;2022-10-22T12:15:24;18.70;93.10
75262;DHT22;63859;51.064;4.580;2022-10-22T12:17:59;18.50;93.20
75262;DHT22;63859;51.064;4.580;2022-10-22T12:20:26;18.50;93.50
75262;DHT22;63859;51.064;4.580;2022-10-22T12:22:54;18.70;93.70
75262;DHT22;63859;51.064;4.580;2022-10-22T12:25:29;18.80;93.30
75262;DHT22;63859;51.064;4.580;2022-10-22T12:27:57;18.80;93.20
75262;DHT22;63859;51.064;4.580;2022-10-22T12:30:31;18.90;93.50
75262;DHT22;63859;51.064;4.580;2022-10-22T12:33:00;19.20;93.00
75262;DHT22;63859;51.064;4.580;2022-10-22T12:35:42;19.30;93.20
75262;DHT22;63859;51.064;4.580;2022-10-22T12:38:16;19.30;92.70
75262;DHT22;63859;51.064;4.580;2022-10-22T12:40:43;19.20;92.40
75262;DHT22;63859;51.064;4.580;2022-10-22T12:43:15;19.20;92.40
75262;DHT22;63859;51.064;4.580;2022-10-22T12:45:46;19.40;92.40
75262;DHT22;63859;51.064;4.580;2022-10-22T12:48:21;19.30;92.10
75262;DHT22;63859;51.064;4.580;2022-10-22T12:50:57;19.20;92.50
75262;DHT22;63859;51.064;4.580;2022-10-22T12:53:28;19.20;92.30
75262;DHT22;63859;51.064;4.580;2022-10-22T12:55:56;19.20;92.40
75262;DHT22;63859;51.064;4.580;2022-10-22T12:58:37;19.30;92.40
75262;DHT22;63859;51.064;4.580;2022-10-22T13:01:03;19.50;92.20
75262;DHT22;63859;51.064;4.580;2022-10-22T13:03:35;19.60;91.50
75262;DHT22;63859;51.064;4.580;2022-10-22T13:06:21;19.70;91.40
75262;DHT22;63859;51.064;4.580;2022-10-22T13:11:30;19.90;91.30
75262;DHT22;63859;51.064;4.580;2022-10-22T13:14:35;19.90;91.10
75262;DHT22;63859;51.064;4.580;2022-10-22T13:17:13;19.90;90.60
75262;DHT22;63859;51.064;4.580;2022-10-22T13:19:59;19.90;90.60
75262;DHT22;63859;51.064;4.580;2022-10-22T13:22:35;19.90;90.90
75262;DHT22;63859;51.064;4.580;2022-10-22T13:27:45;20.00;90.60
75262;DHT22;63859;51.064;4.580;2022-10-22T13:33:01;20.00;90.60
75262;DHT22;63859;51.064;4.580;2022-10-22T13:35:30;19.90;90.80
75262;DHT22;63859;51.064;4.580;2022-10-22T13:37:57;20.00;91.20
75262;DHT22;63859;51.064;4.580;2022-10-22T13:40:23;20.00;90.70
75262;DHT22;63859;51.064;4.580;2022-10-22T13:42:49;19.90;90.90
75262;DHT22;63859;51.064;4.580;2022-10-22T13:45:16;19.90;90.50
75262;DHT22;63859;51.064;4.580;2022-10-22T13:47:43;19.90;91.10
75262;DHT22;63859;51.064;4.580;2022-10-22T13:50:16;20.00;90.40
75262;DHT22;63859;51.064;4.580;2022-10-22T13:52:53;19.90;90.60
75262;DHT22;63859;51.064;4.580;2022-10-22T13:55:23;19.90;90.60
75262;DHT22;63859;51.064;4.580;2022-10-22T13:57:56;19.90;90.20
75262;DHT22;63859;51.064;4.580;2022-10-22T14:00:23;19.90;90.50
75262;DHT22;63859;51.064;4.580;2022-10-22T14:02:52;19.90;90.50
75262;DHT22;63859;51.064;4.580;2022-10-22T14:05:19;19.80;90.00
75262;DHT22;63859;51.064;4.580;2022-10-22T14:07:45;19.70;90.30
75262;DHT22;63859;51.064;4.580;2022-10-22T14:10:19;19.70;90.50
75262;DHT22;63859;51.064;4.580;2022-10-22T14:12:45;19.60;90.50
75262;DHT22;63859;51.064;4.580;2022-10-22T14:15:13;19.60;90.80
75262;DHT22;63859;51.064;4.580;2022-10-22T14:17:40;19.50;91.40
75262;DHT22;63859;51.064;4.580;2022-10-22T14:20:13;19.50;90.90
75262;DHT22;63859;51.064;4.580;2022-10-22T14:22:39;19.50;91.00
75262;DHT22;63859;51.064;4.580;2022-10-22T14:25:05;19.50;91.10
75262;DHT22;63859;51.064;4.580;2022-10-22T14:27:31;19.50;91.20
75262;DHT22;63859;51.064;4.580;2022-10-22T14:29:56;19.40;91.10
75262;DHT22;63859;51.064;4.580;2022-10-22T14:32:22;19.30;91.40
75262;DHT22;63859;51.064;4.580;2022-10-22T14:34:47;19.30;91.40
75262;DHT22;63859;51.064;4.580;2022-10-22T14:37:19;19.30;91.40
75262;DHT22;63859;51.064;4.580;2022-10-22T14:39:46;19.40;91.40
75262;DHT22;63859;51.064;4.580;2022-10-22T14:42:19;19.30;91.10
75262;DHT22;63859;51.064;4.580;2022-10-22T14:44:45;19.20;90.90
75262;DHT22;63859;51.064;4.580;2022-10-22T14:47:11;19.20;91.10
75262;DHT22;63859;51.064;4.580;2022-10-22T14:49:36;19.20;90.90
75262;DHT22;63859;51.064;4.580;2022-10-22T14:52:02;19.20;91.40
75262;DHT22;63859;51.064;4.580;2022-10-22T14:54:28;19.10;91.20
75262;DHT22;63859;51.064;4.580;2022-10-22T14:56:53;19.10;91.20
75262;DHT22;63859;51.064;4.580;2022-10-22T14:59:19;19.10;91.50
75262;DHT22;63859;51.064;4.580;2022-10-22T15:01:44;19.00;91.60
75262;DHT22;63859;51.064;4.580;2022-10-22T15:04:10;19.00;91.50
75262;DHT22;63859;51.064;4.580;2022-10-22T15:06:35;19.00;91.70
75262;DHT22;63859;51.064;4.580;2022-10-22T15:09:01;19.00;91.80
75262;DHT22;63859;51.064;4.580;2022-10-22T15:11:27;19.00;91.80
75262;DHT22;63859;51.064;4.580;2022-10-22T15:13:52;19.00;91.70
75262;DHT22;63859;51.064;4.580;2022-10-22T15:16:18;19.00;91.90
75262;DHT22;63859;51.064;4.580;2022-10-22T15:18:44;19.00;91.90
75262;DHT22;63859;51.064;4.580;2022-10-22T15:21:18;19.00;92.00
75262;DHT22;63859;51.064;4.580;2022-10-22T15:23:44;19.00;91.90
75262;DHT22;63859;51.064;4.580;2022-10-22T15:26:11;18.90;91.80
75262;DHT22;63859;51.064;4.580;2022-10-22T15:28:38;18.90;91.80
75262;DHT22;63859;51.064;4.580;2022-10-22T15:31:05;18.90;91.90
75262;DHT22;63859;51.064;4.580;2022-10-22T15:33:31;18.90;92.20
75262;DHT22;63859;51.064;4.580;2022-10-22T15:35:57;18.90;92.20
75262;DHT22;63859;51.064;4.580;2022-10-22T15:38:27;18.80;92.00
75262;DHT22;63859;51.064;4.580;2022-10-22T15:41:01;18.80;92.10
75262;DHT22;63859;51.064;4.580;2022-10-22T15:43:26;18.80;92.30
75262;DHT22;63859;51.064;4.580;2022-10-22T15:46:15;18.80;92.50
75262;DHT22;63859;51.064;4.580;2022-10-22T15:48:41;18.70;92.60
75262;DHT22;63859;51.064;4.580;2022-10-22T15:51:12;18.70;92.50
75262;DHT22;63859;51.064;4.580;2022-10-22T15:53:38;18.70;92.90
75262;DHT22;63859;51.064;4.580;2022-10-22T15:56:04;18.70;92.80
75262;DHT22;63859;51.064;4.580;2022-10-22T15:58:30;18.60;92.90
75262;DHT22;63859;51.064;4.580;2022-10-22T16:01:03;18.60;93.10
75262;DHT22;63859;51.064;4.580;2022-10-22T16:03:29;18.60;93.30
75262;DHT22;63859;51.064;4.580;2022-10-22T16:05:55;18.50;93.50
75262;DHT22;63859;51.064;4.580;2022-10-22T16:08:21;18.50;93.50
75262;DHT22;63859;51.064;4.580;2022-10-22T16:10:47;18.40;93.60
75262;DHT22;63859;51.064;4.580;2022-10-22T16:13:14;18.40;93.80
75262;DHT22;63859;51.064;4.580;2022-10-22T16:15:39;18.40;94.00
75262;DHT22;63859;51.064;4.580;2022-10-22T16:18:05;18.30;94.00
75262;DHT22;63859;51.064;4.580;2022-10-22T16:20:30;18.30;94.20
75262;DHT22;63859;51.064;4.580;2022-10-22T16:22:56;18.20;94.30
75262;DHT22;63859;51.064;4.580;2022-10-22T16:25:22;18.10;94.30
75262;DHT22;63859;51.064;4.580;2022-10-22T16:27:49;18.10;94.40
75262;DHT22;63859;51.064;4.580;2022-10-22T16:30:15;18.00;94.30
75262;DHT22;63859;51.064;4.580;2022-10-22T16:32:41;18.00;94.50
75262;DHT22;63859;51.064;4.580;2022-10-22T16:35:07;17.90;94.60
75262;DHT22;63859;51.064;4.580;2022-10-22T16:37:33;17.90;94.70
75262;DHT22;63859;51.064;4.580;2022-10-22T16:39:58;17.80;94.60
75262;DHT22;63859;51.064;4.580;2022-10-22T16:42:24;17.80;94.70
75262;DHT22;63859;51.064;4.580;2022-10-22T16:44:49;17.70;94.80
75262;DHT22;63859;51.064;4.580;2022-10-22T16:47:15;17.70;95.00
75262;DHT22;63859;51.064;4.580;2022-10-22T16:49:41;17.60;95.00
75262;DHT22;63859;51.064;4.580;2022-10-22T16:52:06;17.60;95.00
75262;DHT22;63859;51.064;4.580;2022-10-22T16:54:32;17.60;95.00
75262;DHT22;63859;51.064;4.580;2022-10-22T16:56:58;17.50;94.90
75262;DHT22;63859;51.064;4.580;2022-10-22T16:59:23;17.50;95.00
75262;DHT22;63859;51.064;4.580;2022-10-22T17:01:49;17.40;95.10
75262;DHT22;63859;51.064;4.580;2022-10-22T17:04:14;17.40;95.40
75262;DHT22;63859;51.064;4.580;2022-10-22T17:06:42;17.40;95.20
75262;DHT22;63859;51.064;4.580;2022-10-22T17:09:07;17.30;95.20
75262;DHT22;63859;51.064;4.580;2022-10-22T17:11:33;17.30;95.30
75262;DHT22;63859;51.064;4.580;2022-10-22T17:14:00;17.30;95.40